sensor_id;sensor_type;location;lat;lon;timestamp;pressure;altitude;pressure_sealevel;temperature;humidity
28927;BME280;16038;47.692;9.400;2023-03-14T00:01:45;95328.94;;;8.45;100.00
28927;BME280;16038;47.692;9.400;2023-03-14T00:04:10;95348.34;;;8.33;100.00
28927;BME280;16038;47.692;9.400;2023-03-14T00:06:35;95349.50;;;8.28;100.00
28927;BME280;16038;47.692;9.400;2023-03-14T00:09:01;95360.81;;;8.27;100.00
28927;BME280;16038;47.692;9.400;2023-03-14T00:11:26;95363.09;;;8.21;100.00
28927;BME280;16038;47.692;9.400;2023-03-14T00:13:51;95378.72;;;8.24;100.00
28927;BME280;16038;47.692;9.400;2023-03-14T00:16:17;95378.63;;;8.10;100.00
28927;BME280;16038;47.692;9.400;2023-03-14T00:18:42;95380.63;;;8.13;100.00
28927;BME280;16038;47.692;9.400;2023-03-14T00:21:08;95381.69;;;7.97;100.00
28927;BME280;16038;47.692;9.400;2023-03-14T00:23:34;95383.25;;;7.95;100.00
28927;BME280;16038;47.692;9.400;2023-03-14T00:26:01;95387.53;;;7.99;100.00
28927;BME280;16038;47.692;9.400;2023-03-14T00:28:26;95385.66;;;8.11;100.00
28927;BME280;16038;47.692;9.400;2023-03-14T00:30:52;95386.44;;;8.11;100.00
28927;BME280;16038;47.692;9.400;2023-03-14T00:33:17;95389.16;;;8.08;100.00
28927;BME280;16038;47.692;9.400;2023-03-14T00:35:42;95387.59;;;8.10;100.00
28927;BME280;16038;47.692;9.400;2023-03-14T00:38:08;95388.31;;;7.96;100.00
28927;BME280;16038;47.692;9.400;2023-03-14T00:40:33;95387.50;;;7.85;100.00
28927;BME280;16038;47.692;9.400;2023-03-14T00:42:58;95402.28;;;7.84;100.00
28927;BME280;16038;47.692;9.400;2023-03-14T00:45:24;95406.50;;;7.74;100.00
28927;BME280;16038;47.692;9.400;2023-03-14T00:47:49;95398.72;;;7.76;100.00
28927;BME280;16038;47.692;9.400;2023-03-14T00:50:14;95398.31;;;7.71;100.00
28927;BME280;16038;47.692;9.400;2023-03-14T00:52:39;95402.91;;;7.63;100.00
28927;BME280;16038;47.692;9.400;2023-03-14T00:55:05;95384.63;;;7.63;100.00
28927;BME280;16038;47.692;9.400;2023-03-14T00:57:30;95378.75;;;7.61;100.00
28927;BME280;16038;47.692;9.400;2023-03-14T00:59:55;95337.50;;;7.63;100.00
28927;BME280;16038;47.692;9.400;2023-03-14T01:02:21;95322.75;;;7.68;100.00
28927;BME280;16038;47.692;9.400;2023-03-14T01:04:49;95300.19;;;7.71;100.00
28927;BME280;16038;47.692;9.400;2023-03-14T01:07:15;95293.56;;;7.68;100.00
28927;BME280;16038;47.692;9.400;2023-03-14T01:09:40;95278.34;;;7.60;100.00
28927;BME280;16038;47.692;9.400;2023-03-14T01:12:05;95254.56;;;7.57;100.00
28927;BME280;16038;47.692;9.400;2023-03-14T01:14:31;95232.38;;;7.55;100.00
28927;BME280;16038;47.692;9.400;2023-03-14T01:16:56;95230.00;;;7.42;100.00
28927;BME280;16038;47.692;9.400;2023-03-14T01:19:26;95221.81;;;7.39;100.00
28927;BME280;16038;47.692;9.400;2023-03-14T01:21:51;95239.28;;;7.38;100.00
28927;BME280;16038;47.692;9.400;2023-03-14T01:24:17;95244.38;;;7.43;100.00
28927;BME280;16038;47.692;9.400;2023-03-14T01:26:42;95241.25;;;7.41;100.00
28927;BME280;16038;47.692;9.400;2023-03-14T01:29:07;95235.81;;;7.41;100.00
28927;BME280;16038;47.692;9.400;2023-03-14T01:31:33;95226.47;;;7.38;100.00
28927;BME280;16038;47.692;9.400;2023-03-14T01:33:58;95202.72;;;7.35;100.00
28927;BME280;16038;47.692;9.400;2023-03-14T01:36:23;95212.41;;;7.33;100.00
28927;BME280;16038;47.692;9.400;2023-03-14T01:38:48;95212.03;;;7.34;100.00
28927;BME280;16038;47.692;9.400;2023-03-14T01:41:19;95207.38;;;7.35;100.00
28927;BME280;16038;47.692;9.400;2023-03-14T01:43:44;95219.44;;;7.34;100.00
28927;BME280;16038;47.692;9.400;2023-03-14T01:48:39;95230.69;;;7.28;100.00
28927;BME280;16038;47.692;9.400;2023-03-14T01:51:16;95233.38;;;7.21;100.00
28927;BME280;16038;47.692;9.400;2023-03-14T01:53:43;95228.28;;;7.16;100.00
28927;BME280;16038;47.692;9.400;2023-03-14T01:56:10;95232.91;;;7.08;100.00
28927;BME280;16038;47.692;9.400;2023-03-14T01:58:36;95228.16;;;6.98;100.00
28927;BME280;16038;47.692;9.400;2023-03-14T02:01:04;95221.56;;;6.96;100.00
28927;BME280;16038;47.692;9.400;2023-03-14T02:03:31;95212.22;;;7.00;100.00
28927;BME280;16038;47.692;9.400;2023-03-14T02:06:01;95205.63;;;7.01;100.00
28927;BME280;16038;47.692;9.400;2023-03-14T02:08:29;95198.63;;;7.00;100.00
28927;BME280;16038;47.692;9.400;2023-03-14T02:10:54;95195.47;;;6.95;100.00
28927;BME280;16038;47.692;9.400;2023-03-14T02:13:20;95186.19;;;6.99;100.00
28927;BME280;16038;47.692;9.400;2023-03-14T02:15:47;95188.19;;;7.10;100.00
28927;BME280;16038;47.692;9.400;2023-03-14T02:18:12;95189.00;;;7.14;100.00
28927;BME280;16038;47.692;9.400;2023-03-14T02:20:45;95187.41;;;7.13;100.00
28927;BME280;16038;47.692;9.400;2023-03-14T02:23:14;95183.13;;;7.08;100.00
28927;BME280;16038;47.692;9.400;2023-03-14T02:28:35;95189.00;;;7.17;100.00
28927;BME280;16038;47.692;9.400;2023-03-14T02:31:00;95193.75;;;7.27;100.00
28927;BME280;16038;47.692;9.400;2023-03-14T02:33:26;95195.31;;;7.32;100.00
28927;BME280;16038;47.692;9.400;2023-03-14T02:38:24;95195.00;;;7.52;100.00
28927;BME280;16038;47.692;9.400;2023-03-14T02:40:52;95191.88;;;7.50;100.00
28927;BME280;16038;47.692;9.400;2023-03-14T02:43:17;95196.09;;;7.40;100.00
28927;BME280;16038;47.692;9.400;2023-03-14T02:45:44;95200.03;;;7.42;100.00
28927;BME280;16038;47.692;9.400;2023-03-14T02:48:26;95208.91;;;7.28;100.00
28927;BME280;16038;47.692;9.400;2023-03-14T02:50:52;95201.88;;;7.24;100.00
28927;BME280;16038;47.692;9.400;2023-03-14T02:53:20;95199.94;;;7.24;100.00
28927;BME280;16038;47.692;9.400;2023-03-14T02:55:49;95190.19;;;7.20;100.00
28927;BME280;16038;47.692;9.400;2023-03-14T02:58:15;95180.09;;;7.20;100.00
28927;BME280;16038;47.692;9.400;2023-03-14T03:00:40;95178.16;;;7.24;100.00
28927;BME280;16038;47.692;9.400;2023-03-14T03:03:06;95170.00;;;7.28;100.00
28927;BME280;16038;47.692;9.400;2023-03-14T03:05:32;95165.31;;;7.28;100.00
28927;BME280;16038;47.692;9.400;2023-03-14T03:07:57;95159.84;;;7.21;100.00
28927;BME280;16038;47.692;9.400;2023-03-14T03:10:23;95166.50;;;7.24;100.00
28927;BME280;16038;47.692;9.400;2023-03-14T03:12:48;95158.66;;;7.15;100.00
28927;BME280;16038;47.692;9.400;2023-03-14T03:15:13;95159.41;;;7.08;100.00
28927;BME280;16038;47.692;9.400;2023-03-14T03:17:39;95157.44;;;7.09;100.00
28927;BME280;16038;47.692;9.400;2023-03-14T03:20:04;95168.31;;;7.05;100.00
28927;BME280;16038;47.692;9.400;2023-03-14T03:22:30;95169.09;;;7.02;100.00
28927;BME280;16038;47.692;9.400;2023-03-14T03:24:56;95170.69;;;7.11;100.00
28927;BME280;16038;47.692;9.400;2023-03-14T03:27:21;95171.09;;;7.16;100.00
28927;BME280;16038;47.692;9.400;2023-03-14T03:29:46;95165.22;;;7.07;100.00
28927;BME280;16038;47.692;9.400;2023-03-14T03:32:12;95176.06;;;7.00;100.00
28927;BME280;16038;47.692;9.400;2023-03-14T03:34:37;95179.19;;;6.98;100.00
28927;BME280;16038;47.692;9.400;2023-03-14T03:37:03;95169.47;;;6.97;100.00
28927;BME280;16038;47.692;9.400;2023-03-14T03:39:28;95167.50;;;6.98;100.00
28927;BME280;16038;47.692;9.400;2023-03-14T03:41:53;95160.50;;;6.97;100.00
28927;BME280;16038;47.692;9.400;2023-03-14T03:44:20;95158.56;;;6.94;100.00
28927;BME280;16038;47.692;9.400;2023-03-14T03:46:45;95150.41;;;6.97;100.00
28927;BME280;16038;47.692;9.400;2023-03-14T03:49:10;95158.94;;;6.92;100.00
28927;BME280;16038;47.692;9.400;2023-03-14T03:51:35;95149.19;;;6.87;100.00
28927;BME280;16038;47.692;9.400;2023-03-14T03:54:01;95147.31;;;6.99;100.00
28927;BME280;16038;47.692;9.400;2023-03-14T03:56:26;95155.84;;;6.94;100.00
28927;BME280;16038;47.692;9.400;2023-03-14T03:58:51;95153.50;;;6.92;100.00
28927;BME280;16038;47.692;9.400;2023-03-14T04:01:16;95152.28;;;6.89;100.00
28927;BME280;16038;47.692;9.400;2023-03-14T04:03:42;95155.41;;;6.88;100.00
28927;BME280;16038;47.692;9.400;2023-03-14T04:06:08;95160.91;;;6.95;100.00
28927;BME280;16038;47.692;9.400;2023-03-14T04:08:34;95144.16;;;6.93;100.00
28927;BME280;16038;47.692;9.400;2023-03-14T04:11:00;95142.22;;;6.90;100.00
28927;BME280;16038;47.692;9.400;2023-03-14T04:13:27;95141.00;;;6.87;100.00
28927;BME280;16038;47.692;9.400;2023-03-14T04:15:54;95133.63;;;6.84;100.00
28927;BME280;16038;47.692;9.400;2023-03-14T04:18:20;95130.88;;;6.81;100.00
28927;BME280;16038;47.692;9.400;2023-03-14T04:20:45;95123.94;;;6.91;100.00
28927;BME280;16038;47.692;9.400;2023-03-14T04:23:11;95113.44;;;6.93;100.00
28927;BME280;16038;47.692;9.400;2023-03-14T04:25:36;95111.09;;;6.91;100.00
28927;BME280;16038;47.692;9.400;2023-03-14T04:28:02;95101.00;;;6.92;100.00
28927;BME280;16038;47.692;9.400;2023-03-14T04:30:29;95104.47;;;6.85;100.00
28927;BME280;16038;47.692;9.400;2023-03-14T04:32:54;95101.31;;;6.79;100.00
28927;BME280;16038;47.692;9.400;2023-03-14T04:35:20;95104.81;;;6.76;100.00
28927;BME280;16038;47.692;9.400;2023-03-14T04:37:45;95098.94;;;6.70;100.00
28927;BME280;16038;47.692;9.400;2023-03-14T04:40:14;95104.00;;;6.68;100.00
28927;BME280;16038;47.692;9.400;2023-03-14T04:42:39;95102.03;;;6.65;100.00
28927;BME280;16038;47.692;9.400;2023-03-14T04:45:04;95102.38;;;6.60;100.00
28927;BME280;16038;47.692;9.400;2023-03-14T04:47:30;95082.19;;;6.61;100.00
28927;BME280;16038;47.692;9.400;2023-03-14T04:49:55;95086.44;;;6.59;100.00
28927;BME280;16038;47.692;9.400;2023-03-14T04:52:20;95083.72;;;6.59;100.00
28927;BME280;16038;47.692;9.400;2023-03-14T04:54:46;95083.34;;;6.60;100.00
28927;BME280;16038;47.692;9.400;2023-03-14T04:57:11;95084.13;;;6.57;100.00
28927;BME280;16038;47.692;9.400;2023-03-14T04:59:36;95082.16;;;6.58;100.00
28927;BME280;16038;47.692;9.400;2023-03-14T05:02:01;95069.38;;;6.65;100.00
28927;BME280;16038;47.692;9.400;2023-03-14T05:04:27;95070.16;;;6.66;100.00
28927;BME280;16038;47.692;9.400;2023-03-14T05:06:52;95070.94;;;6.66;100.00
28927;BME280;16038;47.692;9.400;2023-03-14T05:09:17;95069.38;;;6.69;100.00
28927;BME280;16038;47.692;9.400;2023-03-14T05:11:43;95058.13;;;6.67;100.00
28927;BME280;16038;47.692;9.400;2023-03-14T05:14:08;95059.25;;;6.62;100.00
28927;BME280;16038;47.692;9.400;2023-03-14T05:16:33;95050.66;;;6.57;100.00
28927;BME280;16038;47.692;9.400;2023-03-14T05:18:59;95038.69;;;6.65;100.00
28927;BME280;16038;47.692;9.400;2023-03-14T05:21:26;95043.78;;;6.74;100.00
28927;BME280;16038;47.692;9.400;2023-03-14T05:23:51;95034.72;;;6.55;100.00
28927;BME280;16038;47.692;9.400;2023-03-14T05:26:17;95029.22;;;6.41;100.00
28927;BME280;16038;47.692;9.400;2023-03-14T05:28:42;95024.50;;;6.30;100.00
28927;BME280;16038;47.692;9.400;2023-03-14T05:31:07;95019.44;;;6.29;100.00
28927;BME280;16038;47.692;9.400;2023-03-14T05:33:33;95012.81;;;6.26;100.00
28927;BME280;16038;47.692;9.400;2023-03-14T05:35:58;95006.97;;;6.21;100.00
28927;BME280;16038;47.692;9.400;2023-03-14T05:38:23;95003.00;;;6.07;100.00
28927;BME280;16038;47.692;9.400;2023-03-14T05:40:49;95007.25;;;6.05;100.00
28927;BME280;16038;47.692;9.400;2023-03-14T05:43:14;94994.84;;;6.07;100.00
28927;BME280;16038;47.692;9.400;2023-03-14T05:45:41;94989.09;;;6.16;100.00
28927;BME280;16038;47.692;9.400;2023-03-14T05:48:07;94984.91;;;6.37;100.00
28927;BME280;16038;47.692;9.400;2023-03-14T05:50:32;94976.03;;;6.47;100.00
28927;BME280;16038;47.692;9.400;2023-03-14T05:52:57;94974.50;;;6.53;100.00
28927;BME280;16038;47.692;9.400;2023-03-14T05:55:23;94978.78;;;6.58;100.00
28927;BME280;16038;47.692;9.400;2023-03-14T05:57:48;94976.88;;;6.65;100.00
28927;BME280;16038;47.692;9.400;2023-03-14T06:00:13;94977.66;;;6.66;100.00
28927;BME280;16038;47.692;9.400;2023-03-14T06:02:41;94980.41;;;6.73;100.00
28927;BME280;16038;47.692;9.400;2023-03-14T06:05:06;94971.84;;;6.71;100.00
28927;BME280;16038;47.692;9.400;2023-03-14T06:07:32;94976.13;;;6.72;100.00
28927;BME280;16038;47.692;9.400;2023-03-14T06:09:57;94969.84;;;6.61;100.00
28927;BME280;16038;47.692;9.400;2023-03-14T06:12:23;94981.53;;;6.58;100.00
28927;BME280;16038;47.692;9.400;2023-03-14T06:14:49;94970.25;;;6.56;100.00
28927;BME280;16038;47.692;9.400;2023-03-14T06:17:14;94985.38;;;6.53;100.00
28927;BME280;16038;47.692;9.400;2023-03-14T06:19:39;94972.94;;;6.52;100.00
28927;BME280;16038;47.692;9.400;2023-03-14T06:22:05;94975.66;;;6.52;100.00
28927;BME280;16038;47.692;9.400;2023-03-14T06:24:30;94967.13;;;6.54;100.00
28927;BME280;16038;47.692;9.400;2023-03-14T06:26:55;94973.31;;;6.50;100.00
28927;BME280;16038;47.692;9.400;2023-03-14T06:29:20;94965.97;;;6.58;100.00
28927;BME280;16038;47.692;9.400;2023-03-14T06:31:46;94967.19;;;6.79;100.00
28927;BME280;16038;47.692;9.400;2023-03-14T06:34:11;94957.88;;;6.83;100.00
28927;BME280;16038;47.692;9.400;2023-03-14T06:36:36;94968.03;;;6.94;100.00
28927;BME280;16038;47.692;9.400;2023-03-14T06:39:01;94965.69;;;6.96;100.00
28927;BME280;16038;47.692;9.400;2023-03-14T06:41:27;94965.31;;;7.01;100.00
28927;BME280;16038;47.692;9.400;2023-03-14T06:43:52;94963.00;;;7.14;100.00
28927;BME280;16038;47.692;9.400;2023-03-14T06:46:17;94963.44;;;7.34;100.00
28927;BME280;16038;47.692;9.400;2023-03-14T06:48:43;94960.31;;;7.46;100.00
28927;BME280;16038;47.692;9.400;2023-03-14T06:51:08;94950.97;;;7.65;100.00
28927;BME280;16038;47.692;9.400;2023-03-14T06:53:33;94944.34;;;7.77;100.00
28927;BME280;16038;47.692;9.400;2023-03-14T06:55:59;94952.53;;;7.84;100.00
28927;BME280;16038;47.692;9.400;2023-03-14T06:58:24;94951.38;;;7.78;100.00
28927;BME280;16038;47.692;9.400;2023-03-14T07:00:49;94955.66;;;7.72;100.00
28927;BME280;16038;47.692;9.400;2023-03-14T07:03:15;94952.53;;;7.84;100.00
28927;BME280;16038;47.692;9.400;2023-03-14T07:05:40;94954.09;;;7.89;100.00
28927;BME280;16038;47.692;9.400;2023-03-14T07:08:06;94956.41;;;7.79;100.00
28927;BME280;16038;47.692;9.400;2023-03-14T07:10:32;94949.78;;;7.91;100.00
28927;BME280;16038;47.692;9.400;2023-03-14T07:12:57;94955.25;;;7.70;100.00
28927;BME280;16038;47.692;9.400;2023-03-14T07:15:23;94965.38;;;7.80;100.00
28927;BME280;16038;47.692;9.400;2023-03-14T07:17:48;94956.41;;;7.69;100.00
28927;BME280;16038;47.692;9.400;2023-03-14T07:20:13;94960.72;;;7.73;100.00
28927;BME280;16038;47.692;9.400;2023-03-14T07:22:39;94956.41;;;7.72;100.00
28927;BME280;16038;47.692;9.400;2023-03-14T07:25:04;94954.47;;;7.94;100.00
28927;BME280;16038;47.692;9.400;2023-03-14T07:27:30;94955.97;;;8.17;100.00
28927;BME280;16038;47.692;9.400;2023-03-14T07:29:55;94955.50;;;8.40;100.00
28927;BME280;16038;47.692;9.400;2023-03-14T07:32:20;94971.84;;;8.58;100.00
28927;BME280;16038;47.692;9.400;2023-03-14T07:34:45;94966.41;;;8.51;100.00
28927;BME280;16038;47.692;9.400;2023-03-14T07:37:11;94971.41;;;8.70;100.00
28927;BME280;16038;47.692;9.400;2023-03-14T07:39:36;94982.38;;;8.63;100.00
28927;BME280;16038;47.692;9.400;2023-03-14T07:42:01;94980.81;;;8.51;100.00
28927;BME280;16038;47.692;9.400;2023-03-14T07:44:27;94985.78;;;8.82;100.00
28927;BME280;16038;47.692;9.400;2023-03-14T07:46:52;94992.47;;;8.70;100.00
28927;BME280;16038;47.692;9.400;2023-03-14T07:49:18;94997.13;;;8.76;100.00
28927;BME280;16038;47.692;9.400;2023-03-14T07:51:43;94980.59;;;9.05;100.00
28927;BME280;16038;47.692;9.400;2023-03-14T07:54:11;94988.66;;;9.27;100.00
28927;BME280;16038;47.692;9.400;2023-03-14T07:56:36;94980.63;;;9.61;100.00
28927;BME280;16038;47.692;9.400;2023-03-14T07:59:02;94985.28;;;10.13;97.54
28927;BME280;16038;47.692;9.400;2023-03-14T08:01:28;94975.88;;;10.56;95.19
28927;BME280;16038;47.692;9.400;2023-03-14T08:03:54;94984.63;;;10.78;90.23
28927;BME280;16038;47.692;9.400;2023-03-14T08:06:19;94985.34;;;11.13;89.03
28927;BME280;16038;47.692;9.400;2023-03-14T08:08:44;94986.91;;;11.14;92.76
28927;BME280;16038;47.692;9.400;2023-03-14T08:11:10;94983.63;;;11.26;89.13
28927;BME280;16038;47.692;9.400;2023-03-14T08:13:36;94997.47;;;11.97;80.39
28927;BME280;16038;47.692;9.400;2023-03-14T08:16:01;95003.94;;;11.56;80.77
28927;BME280;16038;47.692;9.400;2023-03-14T08:18:27;94995.97;;;11.38;83.17
28927;BME280;16038;47.692;9.400;2023-03-14T08:20:52;95002.94;;;11.70;79.54
28927;BME280;16038;47.692;9.400;2023-03-14T08:23:17;95005.59;;;11.22;84.63
28927;BME280;16038;47.692;9.400;2023-03-14T08:25:43;95008.66;;;11.55;79.89
28927;BME280;16038;47.692;9.400;2023-03-14T08:28:08;95016.97;;;11.75;78.42
28927;BME280;16038;47.692;9.400;2023-03-14T08:30:34;95003.00;;;11.93;78.65
28927;BME280;16038;47.692;9.400;2023-03-14T08:33:00;94989.00;;;11.84;77.87
28927;BME280;16038;47.692;9.400;2023-03-14T08:35:25;94989.66;;;11.41;79.50
28927;BME280;16038;47.692;9.400;2023-03-14T08:37:50;94976.78;;;11.65;77.03
28927;BME280;16038;47.692;9.400;2023-03-14T08:40:17;94985.44;;;11.36;78.23
28927;BME280;16038;47.692;9.400;2023-03-14T08:42:42;94994.31;;;11.71;74.69
28927;BME280;16038;47.692;9.400;2023-03-14T08:45:08;94986.88;;;11.44;76.26
28927;BME280;16038;47.692;9.400;2023-03-14T08:47:34;94992.72;;;11.46;77.53
28927;BME280;16038;47.692;9.400;2023-03-14T08:49:59;95001.25;;;11.52;77.04
28927;BME280;16038;47.692;9.400;2023-03-14T08:52:25;95000.72;;;11.61;73.68
28927;BME280;16038;47.692;9.400;2023-03-14T08:54:50;95003.06;;;11.62;73.32
28927;BME280;16038;47.692;9.400;2023-03-14T08:57:15;94995.91;;;11.14;75.57
28927;BME280;16038;47.692;9.400;2023-03-14T08:59:41;95001.97;;;10.98;78.21
28927;BME280;16038;47.692;9.400;2023-03-14T09:02:08;95014.16;;;10.94;76.69
28927;BME280;16038;47.692;9.400;2023-03-14T09:04:33;95016.34;;;10.75;78.32
28927;BME280;16038;47.692;9.400;2023-03-14T09:06:59;95011.41;;;10.63;78.75
28927;BME280;16038;47.692;9.400;2023-03-14T09:09:25;95021.88;;;10.33;79.21
28927;BME280;16038;47.692;9.400;2023-03-14T09:11:52;95029.63;;;10.39;80.43
28927;BME280;16038;47.692;9.400;2023-03-14T09:14:17;95025.44;;;10.65;80.21
28927;BME280;16038;47.692;9.400;2023-03-14T09:16:42;95035.72;;;10.92;78.93
28927;BME280;16038;47.692;9.400;2023-03-14T09:19:07;95033.72;;;11.26;77.51
28927;BME280;16038;47.692;9.400;2023-03-14T09:21:33;95034.59;;;11.51;75.23
28927;BME280;16038;47.692;9.400;2023-03-14T09:23:58;95029.88;;;11.51;74.62
28927;BME280;16038;47.692;9.400;2023-03-14T09:26:23;95030.63;;;11.52;74.04
28927;BME280;16038;47.692;9.400;2023-03-14T09:28:49;95032.53;;;11.27;77.44
28927;BME280;16038;47.692;9.400;2023-03-14T09:31:14;95024.13;;;11.69;74.10
28927;BME280;16038;47.692;9.400;2023-03-14T09:33:39;95033.31;;;11.55;74.39
28927;BME280;16038;47.692;9.400;2023-03-14T09:36:05;95038.78;;;11.28;76.48
28927;BME280;16038;47.692;9.400;2023-03-14T09:38:31;95035.81;;;11.15;78.11
28927;BME280;16038;47.692;9.400;2023-03-14T09:40:58;95045.88;;;11.25;76.39
28927;BME280;16038;47.692;9.400;2023-03-14T09:43:24;95050.47;;;11.32;76.68
28927;BME280;16038;47.692;9.400;2023-03-14T09:45:51;95060.66;;;11.32;76.02
28927;BME280;16038;47.692;9.400;2023-03-14T09:48:19;95063.34;;;11.35;77.22
28927;BME280;16038;47.692;9.400;2023-03-14T09:50:46;95058.88;;;11.18;75.79
28927;BME280;16038;47.692;9.400;2023-03-14T09:53:16;95047.63;;;11.08;75.14
28927;BME280;16038;47.692;9.400;2023-03-14T09:55:42;95053.38;;;10.87;76.00
28927;BME280;16038;47.692;9.400;2023-03-14T09:58:16;95071.44;;;10.81;76.66
28927;BME280;16038;47.692;9.400;2023-03-14T10:00:41;95055.53;;;10.68;76.07
28927;BME280;16038;47.692;9.400;2023-03-14T10:05:38;95069.88;;;10.80;76.71
28927;BME280;16038;47.692;9.400;2023-03-14T10:08:04;95062.81;;;10.82;76.88
28927;BME280;16038;47.692;9.400;2023-03-14T10:10:29;95067.63;;;11.05;76.16
28927;BME280;16038;47.692;9.400;2023-03-14T10:13:10;95072.16;;;10.85;75.67
28927;BME280;16038;47.692;9.400;2023-03-14T10:15:37;95076.13;;;10.80;76.33
28927;BME280;16038;47.692;9.400;2023-03-14T10:18:04;95075.59;;;10.93;76.50
28927;BME280;16038;47.692;9.400;2023-03-14T10:20:38;95070.25;;;10.82;77.38
28927;BME280;16038;47.692;9.400;2023-03-14T10:23:04;95077.47;;;10.65;78.12
28927;BME280;16038;47.692;9.400;2023-03-14T10:25:34;95081.81;;;10.59;77.74
28927;BME280;16038;47.692;9.400;2023-03-14T10:28:00;95073.22;;;10.57;78.11
28927;BME280;16038;47.692;9.400;2023-03-14T10:30:28;95083.34;;;10.63;78.34
28927;BME280;16038;47.692;9.400;2023-03-14T10:32:54;95081.06;;;10.55;78.90
28927;BME280;16038;47.692;9.400;2023-03-14T10:35:20;95077.25;;;10.48;78.60
28927;BME280;16038;47.692;9.400;2023-03-14T10:37:54;95092.47;;;10.49;78.66
28927;BME280;16038;47.692;9.400;2023-03-14T10:40:24;95090.00;;;10.62;78.00
28927;BME280;16038;47.692;9.400;2023-03-14T10:42:50;95076.56;;;10.37;79.16
28927;BME280;16038;47.692;9.400;2023-03-14T10:45:39;95075.69;;;10.44;79.45
28927;BME280;16038;47.692;9.400;2023-03-14T10:50:47;95086.38;;;10.31;80.68
28927;BME280;16038;47.692;9.400;2023-03-14T10:53:13;95096.63;;;10.20;81.60
28927;BME280;16038;47.692;9.400;2023-03-14T10:55:42;95091.19;;;10.12;82.64
28927;BME280;16038;47.692;9.400;2023-03-14T10:58:18;95101.03;;;9.99;83.96
28927;BME280;16038;47.692;9.400;2023-03-14T11:00:44;95100.31;;;9.91;85.17
28927;BME280;16038;47.692;9.400;2023-03-14T11:03:11;95096.88;;;9.80;86.11
28927;BME280;16038;47.692;9.400;2023-03-14T11:08:07;95119.19;;;9.71;88.16
28927;BME280;16038;47.692;9.400;2023-03-14T11:10:35;95127.09;;;9.55;90.84
28927;BME280;16038;47.692;9.400;2023-03-14T11:13:14;95120.44;;;9.60;94.30
28927;BME280;16038;47.692;9.400;2023-03-14T11:23:32;95136.91;;;9.38;100.00
28927;BME280;16038;47.692;9.400;2023-03-14T11:26:14;95142.09;;;9.14;100.00
28927;BME280;16038;47.692;9.400;2023-03-14T11:28:49;95137.88;;;8.85;100.00
28927;BME280;16038;47.692;9.400;2023-03-14T11:31:19;95144.13;;;8.78;100.00
28927;BME280;16038;47.692;9.400;2023-03-14T11:36:26;95159.69;;;8.99;100.00
28927;BME280;16038;47.692;9.400;2023-03-14T11:38:53;95164.78;;;8.90;100.00
28927;BME280;16038;47.692;9.400;2023-03-14T11:41:22;95171.44;;;8.82;100.00
28927;BME280;16038;47.692;9.400;2023-03-14T11:43:56;95160.13;;;8.83;100.00
28927;BME280;16038;47.692;9.400;2023-03-14T11:46:30;95155.78;;;8.93;100.00
28927;BME280;16038;47.692;9.400;2023-03-14T11:49:05;95167.94;;;8.74;100.00
28927;BME280;16038;47.692;9.400;2023-03-14T11:51:36;95175.72;;;8.75;100.00
28927;BME280;16038;47.692;9.400;2023-03-14T11:56:35;95181.19;;;8.68;100.00
28927;BME280;16038;47.692;9.400;2023-03-14T11:59:08;95181.19;;;8.61;100.00
28927;BME280;16038;47.692;9.400;2023-03-14T12:01:55;95189.75;;;8.34;100.00
28927;BME280;16038;47.692;9.400;2023-03-14T12:06:54;95212.34;;;8.35;100.00
28927;BME280;16038;47.692;9.400;2023-03-14T12:09:22;95197.13;;;8.16;100.00
28927;BME280;16038;47.692;9.400;2023-03-14T12:14:18;95232.16;;;8.10;100.00
28927;BME280;16038;47.692;9.400;2023-03-14T12:16:45;95222.44;;;8.06;100.00
28927;BME280;16038;47.692;9.400;2023-03-14T12:21:50;95231.72;;;7.94;100.00
28927;BME280;16038;47.692;9.400;2023-03-14T12:24:18;95238.66;;;7.70;100.00
28927;BME280;16038;47.692;9.400;2023-03-14T12:26:50;95260.41;;;7.59;100.00
28927;BME280;16038;47.692;9.400;2023-03-14T12:29:16;95237.00;;;7.47;100.00
28927;BME280;16038;47.692;9.400;2023-03-14T12:31:43;95257.56;;;7.34;100.00
28927;BME280;16038;47.692;9.400;2023-03-14T12:41:52;95267.19;;;7.13;100.00
28927;BME280;16038;47.692;9.400;2023-03-14T12:46:58;95264.00;;;7.07;100.00
28927;BME280;16038;47.692;9.400;2023-03-14T12:49:30;95262.50;;;7.14;100.00
28927;BME280;16038;47.692;9.400;2023-03-14T12:52:00;95264.84;;;7.12;100.00
28927;BME280;16038;47.692;9.400;2023-03-14T12:59:45;95278.78;;;7.06;100.00
28927;BME280;16038;47.692;9.400;2023-03-14T13:12:56;95282.25;;;7.66;100.00
28927;BME280;16038;47.692;9.400;2023-03-14T13:15:31;95314.19;;;7.69;100.00
28927;BME280;16038;47.692;9.400;2023-03-14T13:18:02;95297.41;;;7.56;100.00
28927;BME280;16038;47.692;9.400;2023-03-14T13:22:54;95319.28;;;7.74;100.00
28927;BME280;16038;47.692;9.400;2023-03-14T13:25:19;95322.03;;;7.74;100.00
28927;BME280;16038;47.692;9.400;2023-03-14T13:27:47;95334.91;;;7.84;100.00
28927;BME280;16038;47.692;9.400;2023-03-14T13:32:41;95350.63;;;8.13;100.00
28927;BME280;16038;47.692;9.400;2023-03-14T13:35:15;95333.06;;;8.10;100.00
28927;BME280;16038;47.692;9.400;2023-03-14T13:37:40;95371.16;;;7.92;100.00
28927;BME280;16038;47.692;9.400;2023-03-14T13:40:17;95420.66;;;7.98;100.00
28927;BME280;16038;47.692;9.400;2023-03-14T13:42:42;95437.00;;;7.94;100.00
28927;BME280;16038;47.692;9.400;2023-03-14T13:45:09;95455.47;;;7.15;100.00
28927;BME280;16038;47.692;9.400;2023-03-14T13:47:37;95480.16;;;6.62;100.00
28927;BME280;16038;47.692;9.400;2023-03-14T13:50:03;95483.09;;;6.49;100.00
28927;BME280;16038;47.692;9.400;2023-03-14T13:52:30;95502.53;;;6.18;100.00
28927;BME280;16038;47.692;9.400;2023-03-14T13:54:56;95506.25;;;5.83;100.00
28927;BME280;16038;47.692;9.400;2023-03-14T13:57:22;95510.91;;;5.82;100.00
28927;BME280;16038;47.692;9.400;2023-03-14T14:00:06;95520.19;;;5.58;100.00
28927;BME280;16038;47.692;9.400;2023-03-14T14:02:35;95522.00;;;5.73;100.00
28927;BME280;16038;47.692;9.400;2023-03-14T14:05:01;95521.25;;;5.96;100.00